Time;durP1;ratioP1;P1;durP2;ratioP2;P2;SDS_P1;SDS_P2;PMS_P1;PMS_P2;Temp;Humidity;BMP_temperature;BMP_pressure;BME280_temperature;BME280_humidity;BME280_pressure;Samples;Min_cycle;Max_cycle;Signal;HPM_P1;HPM_P2
2022/12/07 00:01:45;;;;;;;20.20;18.20;;;;;;;0.73;100.00;97345.41;104673;1330;22244;-86
2022/12/07 00:04:16;;;;;;;19.50;17.60;;;;;;;0.73;100.00;97347.33;104520;1330;22177;-88
2022/12/07 00:06:46;;;;;;;19.40;17.30;;;;;;;0.74;100.00;97347.11;105015;1308;22921;-88
2022/12/07 00:09:17;;;;;;;18.20;16.40;;;;;;;0.75;100.00;97341.61;104611;1330;22112;-84
2022/12/07 00:11:51;;;;;;;20.00;18.00;;;;;;;0.79;100.00;97345.91;104891;1306;22105;-85
2022/12/07 00:14:20;;;;;;;19.70;17.70;;;;;;;0.80;100.00;97348.23;104693;1329;22101;-85
2022/12/07 00:16:51;;;;;;;20.30;18.00;;;;;;;0.77;100.00;97344.50;104538;1330;22924;-84
2022/12/07 00:19:23;;;;;;;19.00;17.10;;;;;;;0.75;100.00;97341.45;104910;1323;22072;-86
2022/12/07 00:21:51;;;;;;;16.70;15.20;;;;;;;0.78;100.00;97340.64;104752;1329;22707;-85
2022/12/07 00:24:19;;;;;;;18.40;16.80;;;;;;;0.78;100.00;97343.13;104808;1325;22121;-86
2022/12/07 00:26:48;;;;;;;19.30;17.50;;;;;;;0.77;100.00;97338.08;104726;1330;22323;-86
2022/12/07 00:29:19;;;;;;;18.60;16.60;;;;;;;0.75;100.00;97337.53;104738;1329;22116;-85
2022/12/07 00:31:47;;;;;;;17.80;15.90;;;;;;;0.78;100.00;97337.73;104535;1330;22829;-88
2022/12/07 00:34:19;;;;;;;15.70;13.40;;;;;;;0.78;100.00;97339.79;104511;1319;22174;-87
2022/12/07 00:36:48;;;;;;;16.40;14.80;;;;;;;0.80;100.00;97339.81;104383;1330;22874;-87
2022/12/07 00:39:17;;;;;;;15.20;13.80;;;;;;;0.81;100.00;97340.09;104487;1329;22212;-86
2022/12/07 00:41:48;;;;;;;17.60;15.80;;;;;;;0.84;100.00;97332.48;104730;1330;22274;-87
2022/12/07 00:44:16;;;;;;;21.40;18.10;;;;;;;0.83;100.00;97333.27;104723;1329;22703;-86
2022/12/07 00:46:45;;;;;;;19.10;17.10;;;;;;;0.79;100.00;97329.14;104857;1320;22178;-88
2022/12/07 00:49:13;;;;;;;16.50;14.70;;;;;;;0.78;100.00;97324.83;104950;1322;22277;-88
2022/12/07 00:51:41;;;;;;;15.40;13.90;;;;;;;0.80;100.00;97319.33;104631;1329;22267;-87
2022/12/07 00:54:09;;;;;;;14.20;12.80;;;;;;;0.77;100.00;97326.95;104544;1330;22123;-85
2022/12/07 00:56:37;;;;;;;14.90;13.40;;;;;;;0.77;100.00;97323.77;104688;1329;22262;-87
2022/12/07 00:59:05;;;;;;;16.70;14.30;;;;;;;0.73;100.00;97326.95;104556;1331;23058;-87
2022/12/07 01:01:36;;;;;;;15.00;13.50;;;;;;;0.69;100.00;97325.75;104471;1332;22760;-86
2022/12/07 01:04:05;;;;;;;12.90;11.60;;;;;;;0.65;100.00;97324.55;104919;1322;22176;-87
2022/12/07 01:06:33;;;;;;;13.90;12.50;;;;;;;0.62;100.00;97328.53;104741;1320;22088;-86
2022/12/07 01:09:03;;;;;;;15.00;13.20;;;;;;;0.60;100.00;97323.41;104757;1323;22271;-87
2022/12/07 01:11:32;;;;;;;15.70;14.10;;;;;;;0.57;100.00;97320.48;104642;1332;22209;-87
2022/12/07 01:14:01;;;;;;;15.70;14.10;;;;;;;0.55;100.00;97317.74;104574;1333;22920;-84
2022/12/07 01:16:30;;;;;;;15.90;14.30;;;;;;;0.54;100.00;97311.31;104927;1314;22117;-87
2022/12/07 01:19:04;;;;;;;14.70;13.20;;;;;;;0.51;100.00;97315.11;104728;1334;22099;-87
2022/12/07 01:21:37;;;;;;;18.10;14.60;;;;;;;0.52;100.00;97315.59;104653;1331;22088;-87
2022/12/07 01:24:09;;;;;;;14.30;12.90;;;;;;;0.54;100.00;97312.86;104688;1331;22199;-86
2022/12/07 01:26:38;;;;;;;12.70;11.50;;;;;;;0.54;100.00;97309.35;104537;1332;22190;-86
2022/12/07 01:29:05;;;;;;;15.40;14.10;;;;;;;0.54;100.00;97308.73;104777;1315;22784;-87
2022/12/07 01:31:33;;;;;;;16.30;14.80;;;;;;;0.53;100.00;97303.24;104689;1330;22128;-87
2022/12/07 01:34:02;;;;;;;16.60;15.10;;;;;;;0.51;100.00;97309.17;104623;1336;22217;-87
2022/12/07 01:36:32;;;;;;;15.10;13.70;;;;;;;0.49;100.00;97307.87;104512;1336;22344;-87
2022/12/07 01:39:04;;;;;;;15.90;14.50;;;;;;;0.44;100.00;97304.95;104649;1334;22298;-87
2022/12/07 01:41:35;;;;;;;14.90;13.70;;;;;;;0.43;100.00;97304.72;104396;1334;22276;-87
2022/12/07 01:44:25;;;;;;;15.50;14.10;;;;;;;0.43;100.00;97304.73;104712;1332;22273;-88
2022/12/07 01:46:58;;;;;;;16.90;15.30;;;;;;;0.45;100.00;97303.11;104766;1324;22164;-87
2022/12/07 01:49:35;;;;;;;18.80;17.20;;;;;;;0.45;100.00;97301.15;104897;1324;22962;-86
2022/12/07 01:52:19;;;;;;;16.90;15.40;;;;;;;0.40;100.00;97301.20;104746;1336;22177;-88
2022/12/07 01:54:51;;;;;;;15.80;14.50;;;;;;;0.42;100.00;97296.98;104530;1336;22276;-89
2022/12/07 01:57:20;;;;;;;8.00;5.30;;;;;;;0.45;100.00;97296.22;104540;1330;22148;-88
2022/12/07 01:59:51;;;;;;;15.60;14.20;;;;;;;0.47;100.00;97292.96;104886;1322;22369;-89
2022/12/07 02:02:27;;;;;;;18.00;16.30;;;;;;;0.47;100.00;97286.06;104503;1328;22219;-87
2022/12/07 02:04:57;;;;;;;16.30;14.80;;;;;;;0.44;100.00;97287.83;104545;1336;22801;-87
2022/12/07 02:07:26;;;;;;;16.30;14.90;;;;;;;0.44;100.00;97286.63;104738;1330;22169;-87
2022/12/07 02:09:54;;;;;;;15.80;14.30;;;;;;;0.46;100.00;97284.79;104825;1329;22274;-87
2022/12/07 02:12:24;;;;;;;16.30;14.70;;;;;;;0.48;100.00;97285.17;104430;1336;22410;-87
2022/12/07 02:14:52;;;;;;;18.20;16.50;;;;;;;0.49;100.00;97285.13;104868;1323;22317;-89
2022/12/07 02:17:45;;;;;;;19.80;17.90;;;;;;;0.53;100.00;97280.82;104525;1336;22283;-88
2022/12/07 02:20:22;;;;;;;18.90;17.20;;;;;;;0.54;100.00;97280.10;104702;1332;22368;-87
2022/12/07 02:23:40;;;;;;;18.40;16.70;;;;;;;0.54;100.00;97282.05;104725;1330;22261;-87
2022/12/07 02:26:19;;;;;;;19.30;17.50;;;;;;;0.53;100.00;97286.65;104372;1331;22185;-87
2022/12/07 02:29:00;;;;;;;18.10;16.60;;;;;;;0.53;100.00;97290.36;104195;1341;22225;-88
2022/12/07 02:31:30;;;;;;;18.20;16.40;;;;;;;0.53;100.00;97289.19;104210;1335;22239;-87
2022/12/07 02:34:09;;;;;;;20.20;18.40;;;;;;;0.54;100.00;97287.45;104373;1334;22227;-87
2022/12/07 02:36:46;;;;;;;20.00;18.30;;;;;;;0.53;100.00;97284.95;104352;1329;22236;-86
2022/12/07 02:39:34;;;;;;;20.10;18.40;;;;;;;0.55;100.00;97286.84;104456;1334;22231;-87
2022/12/07 02:42:12;;;;;;;23.70;20.20;;;;;;;0.55;100.00;97285.09;104248;1341;22168;-88
2022/12/07 02:44:41;;;;;;;20.20;18.50;;;;;;;0.55;100.00;97278.98;104206;1342;22410;-87
2022/12/07 02:47:14;;;;;;;20.60;18.40;;;;;;;0.59;100.00;97276.52;104191;1336;22241;-86
2022/12/07 02:49:42;;;;;;;22.30;20.30;;;;;;;0.62;100.00;97274.61;104170;1338;23122;-88
2022/12/07 02:52:10;;;;;;;24.70;22.60;;;;;;;0.61;100.00;97273.11;104183;1339;22242;-87
2022/12/07 02:54:40;;;;;;;23.90;21.80;;;;;;;0.60;100.00;97272.95;104196;1336;22249;-88
2022/12/07 02:57:10;;;;;;;23.20;21.20;;;;;;;0.57;100.00;97270.27;104252;1334;22872;-89
2022/12/07 03:00:02;;;;;;;24.60;22.30;;;;;;;0.60;100.00;97270.73;104321;1330;22176;-89
2022/12/07 03:02:45;;;;;;;28.60;26.20;;;;;;;0.67;100.00;97267.52;104520;1331;22284;-89
2022/12/07 03:05:25;;;;;;;26.30;24.00;;;;;;;0.72;100.00;97268.45;104662;1320;22788;-89
2022/12/07 03:08:06;;;;;;;28.90;26.20;;;;;;;0.71;100.00;97269.40;104689;1329;22113;-88
2022/12/07 03:11:06;;;;;;;27.90;25.40;;;;;;;0.71;100.00;97266.42;104496;1332;22104;-88
2022/12/07 03:13:59;;;;;;;21.70;19.50;;;;;;;0.73;100.00;97263.36;104177;1337;23023;-89
2022/12/07 03:16:35;;;;;;;24.00;21.90;;;;;;;0.77;100.00;97263.41;104172;1338;22248;-89
2022/12/07 03:19:10;;;;;;;24.10;21.80;;;;;;;0.82;100.00;97259.59;104213;1338;22357;-89
2022/12/07 03:21:42;;;;;;;26.10;23.80;;;;;;;0.83;100.00;97260.13;104192;1338;22178;-89
2022/12/07 03:24:21;;;;;;;26.20;23.80;;;;;;;0.85;100.00;97262.63;104314;1332;22938;-89
2022/12/07 03:26:58;;;;;;;27.10;24.80;;;;;;;0.83;100.00;97262.61;104156;1323;22110;-89
2022/12/07 03:29:36;;;;;;;26.90;24.40;;;;;;;0.79;100.00;97260.45;104225;1333;22150;-88
2022/12/07 03:32:19;;;;;;;25.20;22.90;;;;;;;0.83;100.00;97260.44;104211;1337;22842;-88
2022/12/07 03:34:54;;;;;;;24.50;22.40;;;;;;;0.85;100.00;97260.67;104181;1338;22376;-89
2022/12/07 03:38:03;;;;;;;23.40;21.30;;;;;;;0.85;100.00;97256.60;104270;1338;22239;-88
2022/12/07 03:40:31;;;;;;;24.50;22.40;;;;;;;0.84;100.00;97257.86;104233;1337;22172;-89
2022/12/07 03:43:04;;;;;;;28.80;26.40;;;;;;;0.81;100.00;97256.55;104234;1338;22313;-89
2022/12/07 03:45:46;;;;;;;29.60;26.90;;;;;;;0.79;100.00;97253.08;104194;1337;22194;-88
2022/12/07 03:48:40;;;;;;;43.50;39.60;;;;;;;0.71;100.00;97254.13;104258;1336;22229;-89
2022/12/07 03:51:38;;;;;;;25.60;23.40;;;;;;;0.67;100.00;97254.13;104729;1329;22830;-87
2022/12/07 03:54:24;;;;;;;26.30;24.00;;;;;;;0.61;100.00;97250.54;104631;1331;22224;-89
2022/12/07 03:56:54;;;;;;;26.80;24.60;;;;;;;0.61;100.00;97249.41;104645;1333;22116;-89
2022/12/07 03:59:23;;;;;;;28.70;26.30;;;;;;;0.62;100.00;97250.07;104433;1332;22194;-88
2022/12/07 04:01:54;;;;;;;27.90;25.40;;;;;;;0.59;100.00;97250.09;104616;1330;22161;-89
2022/12/07 04:04:24;;;;;;;28.40;25.90;;;;;;;0.56;100.00;97247.92;104573;1329;22239;-90
2022/12/07 04:06:53;;;;;;;26.50;24.10;;;;;;;0.59;100.00;97252.09;104820;1325;22189;-89
2022/12/07 04:09:21;;;;;;;26.10;23.90;;;;;;;0.58;100.00;97249.65;104731;1315;22735;-89
2022/12/07 04:11:49;;;;;;;25.80;23.60;;;;;;;0.58;100.00;97248.80;104634;1332;23007;-87
2022/12/07 04:14:20;;;;;;;28.40;26.10;;;;;;;0.60;100.00;97248.75;104716;1329;23016;-87
2022/12/07 04:16:51;;;;;;;29.30;27.00;;;;;;;0.64;100.00;97245.41;104752;1329;22200;-89
2022/12/07 04:19:22;;;;;;;27.50;25.30;;;;;;;0.64;100.00;97244.77;104463;1330;22273;-89
2022/12/07 04:21:50;;;;;;;27.40;25.20;;;;;;;0.65;100.00;97243.20;104644;1315;22234;-89
2022/12/07 04:24:19;;;;;;;25.50;23.30;;;;;;;0.65;100.00;97242.56;104995;1322;22234;-90
2022/12/07 04:26:47;;;;;;;27.00;24.70;;;;;;;0.68;100.00;97243.05;104760;1329;22214;-89
2022/12/07 04:29:16;;;;;;;27.90;25.60;;;;;;;0.72;100.00;97245.60;104831;1323;22078;-89
2022/12/07 04:31:45;;;;;;;30.60;28.00;;;;;;;0.74;100.00;97243.86;104559;1329;22115;-90
2022/12/07 04:34:14;;;;;;;30.50;28.00;;;;;;;0.73;100.00;97243.38;104647;1333;22850;-90
2022/12/07 04:36:42;;;;;;;28.20;25.90;;;;;;;0.70;100.00;97244.55;104955;1311;22189;-90
2022/12/07 04:39:22;;;;;;;24.40;22.30;;;;;;;0.71;100.00;97250.95;104758;1322;22100;-91
2022/12/07 04:41:50;;;;;;;25.80;23.60;;;;;;;0.75;100.00;97253.36;104743;1329;22187;-89
2022/12/07 04:44:20;;;;;;;25.70;23.60;;;;;;;0.78;100.00;97254.98;104530;1330;22200;-90
2022/12/07 04:46:48;;;;;;;25.30;23.20;;;;;;;0.77;100.00;97256.89;104544;1329;23025;-89
2022/12/07 04:49:18;;;;;;;23.80;21.70;;;;;;;0.74;100.00;97257.27;104579;1330;22296;-86
2022/12/07 04:51:46;;;;;;;23.70;21.70;;;;;;;0.72;100.00;97258.89;104884;1322;23006;-87
2022/12/07 04:54:15;;;;;;;23.40;21.30;;;;;;;0.74;100.00;97256.80;104917;1322;22107;-88
2022/12/07 04:56:43;;;;;;;22.10;20.30;;;;;;;0.73;100.00;97258.53;104761;1329;22239;-87
2022/12/07 04:59:13;;;;;;;22.50;20.60;;;;;;;0.69;100.00;97257.13;104683;1329;22206;-87
2022/12/07 05:01:41;;;;;;;25.00;23.00;;;;;;;0.70;100.00;97254.54;104974;1322;22092;-87
2022/12/07 05:04:09;;;;;;;26.30;24.20;;;;;;;0.68;100.00;97255.16;104830;1323;22133;-88
2022/12/07 05:06:37;;;;;;;22.20;20.50;;;;;;;0.67;100.00;97250.38;104649;1330;22112;-87
2022/12/07 05:09:05;;;;;;;23.50;21.40;;;;;;;0.67;100.00;97255.63;104756;1323;22201;-87
2022/12/07 05:11:38;;;;;;;23.00;21.20;;;;;;;0.63;100.00;97253.14;104772;1329;22229;-87
2022/12/07 05:14:17;;;;;;;21.40;19.70;;;;;;;0.65;100.00;97254.23;104640;1330;22206;-87
2022/12/07 05:16:48;;;;;;;21.10;19.30;;;;;;;0.67;100.00;97258.80;104645;1330;22842;-87
2022/12/07 05:19:18;;;;;;;20.70;19.00;;;;;;;0.67;100.00;97253.66;104608;1330;22713;-86
2022/12/07 05:21:46;;;;;;;19.30;17.70;;;;;;;0.65;100.00;97253.05;104521;1330;22286;-88
2022/12/07 05:24:16;;;;;;;20.60;18.90;;;;;;;0.65;100.00;97249.23;104797;1325;22195;-87
2022/12/07 05:26:44;;;;;;;18.50;17.00;;;;;;;0.64;100.00;97254.11;104706;1329;22124;-88
2022/12/07 05:29:16;;;;;;;19.50;17.80;;;;;;;0.60;100.00;97254.17;104634;1329;22840;-85
2022/12/07 05:31:44;;;;;;;20.50;18.80;;;;;;;0.52;100.00;97257.73;104495;1329;22127;-87
2022/12/07 05:34:13;;;;;;;20.00;18.30;;;;;;;0.47;100.00;97258.48;104614;1329;22238;-86
2022/12/07 05:36:41;;;;;;;19.40;17.80;;;;;;;0.46;100.00;97256.90;104637;1316;22227;-86
2022/12/07 05:39:10;;;;;;;18.70;17.00;;;;;;;0.43;100.00;97258.77;104757;1322;22146;-87
2022/12/07 05:44:24;;;;;;;23.80;21.40;;;;;;;0.40;100.00;97254.29;104905;1320;22760;-86
2022/12/07 05:46:52;;;;;;;24.80;22.70;;;;;;;0.37;100.00;97255.19;104865;1314;22251;-86
2022/12/07 05:49:20;;;;;;;24.70;22.50;;;;;;;0.35;100.00;97258.14;104705;1329;22109;-86
2022/12/07 05:51:48;;;;;;;24.60;22.50;;;;;;;0.33;100.00;97257.98;104544;1327;22208;-86
2022/12/07 05:54:16;;;;;;;23.20;21.20;;;;;;;0.35;100.00;97258.47;104720;1329;22250;-86
2022/12/07 05:56:44;;;;;;;25.80;23.60;;;;;;;0.32;100.00;97259.39;104841;1322;22307;-86
2022/12/07 05:59:24;;;;;;;27.10;24.90;;;;;;;0.33;100.00;97257.98;104870;1307;23070;-86
2022/12/07 06:01:56;;;;;;;27.10;24.80;;;;;;;0.31;100.00;97256.09;104717;1320;22203;-87
2022/12/07 06:04:26;;;;;;;25.90;23.60;;;;;;;0.26;100.00;97257.80;104540;1329;22215;-87
2022/12/07 06:06:55;;;;;;;26.20;24.00;;;;;;;0.26;100.00;97261.53;104745;1328;22163;-88
2022/12/07 06:09:24;;;;;;;25.40;23.20;;;;;;;0.28;100.00;97261.63;104651;1322;22964;-87
2022/12/07 06:14:39;;;;;;;28.70;26.10;;;;;;;0.27;100.00;97264.16;105020;1322;22159;-86
2022/12/07 06:17:07;;;;;;;28.00;25.70;;;;;;;0.27;100.00;97264.86;104739;1321;22251;-84
2022/12/07 06:19:35;;;;;;;24.80;22.60;;;;;;;0.29;100.00;97266.73;104736;1329;22864;-85
2022/12/07 06:22:04;;;;;;;24.00;21.90;;;;;;;0.30;100.00;97264.36;104689;1329;22831;-86
2022/12/07 06:24:33;;;;;;;22.50;20.60;;;;;;;0.34;100.00;97268.06;104937;1322;22204;-85
2022/12/07 06:27:01;;;;;;;27.00;24.70;;;;;;;0.34;100.00;97266.93;104745;1329;22227;-85
2022/12/07 06:29:29;;;;;;;23.70;21.60;;;;;;;0.34;100.00;97269.22;104750;1329;22127;-86
2022/12/07 06:31:57;;;;;;;23.50;21.40;;;;;;;0.35;100.00;97274.74;104843;1317;22249;-87
2022/12/07 06:34:25;;;;;;;22.00;20.00;;;;;;;0.34;100.00;97276.48;104937;1322;22200;-88
2022/12/07 06:36:54;;;;;;;28.10;25.40;;;;;;;0.34;100.00;97275.48;104723;1329;22836;-86
2022/12/07 06:39:25;;;;;;;26.50;24.40;;;;;;;0.35;100.00;97280.14;104621;1330;22212;-86
2022/12/07 06:41:54;;;;;;;23.30;21.40;;;;;;;0.38;100.00;97278.39;104991;1322;22080;-88
2022/12/07 06:44:22;;;;;;;25.80;23.60;;;;;;;0.36;100.00;97279.27;104637;1329;22977;-87
2022/12/07 06:46:51;;;;;;;24.30;22.20;;;;;;;0.33;100.00;97279.59;104631;1329;22183;-88
2022/12/07 06:49:39;;;;;;;23.70;21.70;;;;;;;0.31;100.00;97283.02;104915;1322;22180;-87
2022/12/07 06:52:07;;;;;;;21.50;19.60;;;;;;;0.33;100.00;97287.02;105002;1322;22235;-88
2022/12/07 06:54:35;;;;;;;21.80;19.80;;;;;;;0.34;100.00;97285.12;104739;1322;22144;-88
2022/12/07 06:57:03;;;;;;;24.60;22.50;;;;;;;0.34;100.00;97286.29;104761;1329;22192;-87
2022/12/07 06:59:31;;;;;;;26.50;24.20;;;;;;;0.34;100.00;97290.15;104733;1329;23004;-86
2022/12/07 07:01:59;;;;;;;29.50;27.00;;;;;;;0.33;100.00;97288.87;104631;1324;22202;-86
2022/12/07 07:04:27;;;;;;;28.80;26.30;;;;;;;0.33;100.00;97292.36;104904;1323;22083;-85
2022/12/07 07:06:55;;;;;;;29.70;27.20;;;;;;;0.34;100.00;97290.89;105016;1315;22826;-86
2022/12/07 07:09:27;;;;;;;28.10;25.70;;;;;;;0.37;100.00;97291.15;104755;1329;22196;-85
2022/12/07 07:11:55;;;;;;;29.10;26.80;;;;;;;0.38;100.00;97285.32;105084;1304;22222;-86
2022/12/07 07:14:23;;;;;;;32.20;29.10;;;;;;;0.40;100.00;97291.55;104966;1322;22230;-86
2022/12/07 07:16:51;;;;;;;30.60;27.80;;;;;;;0.41;100.00;97297.19;105028;1316;22127;-87
2022/12/07 07:19:19;;;;;;;28.00;25.60;;;;;;;0.43;100.00;97294.19;104803;1329;23029;-86
2022/12/07 07:21:47;;;;;;;25.20;23.00;;;;;;;0.48;100.00;97291.36;104817;1323;156002;-86
2022/12/07 07:24:15;;;;;;;23.30;21.10;;;;;;;0.55;100.00;97289.53;104783;1324;22076;-86
2022/12/07 07:26:43;;;;;;;26.00;23.90;;;;;;;0.55;100.00;97283.55;104643;1329;23023;-87
2022/12/07 07:29:11;;;;;;;33.30;30.20;;;;;;;0.56;100.00;97288.52;104772;1329;22867;-88
2022/12/07 07:31:39;;;;;;;33.00;29.80;;;;;;;0.56;100.00;97284.89;104548;1330;22356;-86
2022/12/07 07:34:07;;;;;;;43.60;38.90;;;;;;;0.55;100.00;97283.81;104719;1330;22218;-85
2022/12/07 07:36:35;;;;;;;26.10;23.20;;;;;;;0.55;100.00;97290.02;104747;1329;22763;-85
2022/12/07 07:39:03;;;;;;;33.00;28.10;;;;;;;0.56;100.00;97289.66;104728;1330;21871;-85
2022/12/07 07:41:31;;;;;;;22.70;20.40;;;;;;;0.56;100.00;97285.63;104893;1327;22275;-84
2022/12/07 07:43:59;;;;;;;21.60;19.50;;;;;;;0.52;100.00;97295.44;104815;1324;22136;-87
2022/12/07 07:46:27;;;;;;;21.90;19.80;;;;;;;0.50;100.00;97294.36;104637;1325;22996;-86
2022/12/07 07:48:55;;;;;;;28.80;24.50;;;;;;;0.49;100.00;97297.23;105007;1322;22127;-88
2022/12/07 07:56:06;;;;;;;34.20;30.70;;;;;;;0.44;100.00;97300.40;104739;1329;22931;-84
2022/12/07 07:58:35;;;;;;;44.30;37.10;;;;;;;0.42;100.00;97299.85;104937;1322;22203;-86
2022/12/07 08:01:05;;;;;;;29.90;26.70;;;;;;;0.42;100.00;97304.39;104738;1329;22278;-85
2022/12/07 08:03:34;;;;;;;24.30;21.90;;;;;;;0.46;100.00;97303.54;104689;1330;22069;-86
2022/12/07 08:06:03;;;;;;;21.10;19.10;;;;;;;0.51;100.00;97307.14;104749;1329;22339;-83
2022/12/07 08:08:31;;;;;;;22.40;20.10;;;;;;;0.49;100.00;97305.17;104505;1330;22218;-85
2022/12/07 08:11:01;;;;;;;15.90;14.40;;;;;;;0.48;100.00;97305.33;104787;1322;22100;-89
2022/12/07 08:13:29;;;;;;;23.00;20.90;;;;;;;0.51;100.00;97304.82;104660;1330;22202;-90
2022/12/07 08:15:58;;;;;;;28.50;25.70;;;;;;;0.59;100.00;97309.09;104573;1330;22199;-89
2022/12/07 08:18:26;;;;;;;31.00;27.80;;;;;;;0.59;100.00;97315.36;104920;1322;22238;-86
2022/12/07 08:21:01;;;;;;;44.80;36.90;;;;;;;0.58;100.00;97310.84;104479;1329;22217;-83
2022/12/07 08:23:30;;;;;;;46.70;32.60;;;;;;;0.60;100.00;97314.52;104508;1330;22105;-83
2022/12/07 08:26:12;;;;;;;40.10;31.20;;;;;;;0.60;100.00;97319.08;104586;1330;22120;-85
2022/12/07 08:28:40;;;;;;;;;;;;;;;0.60;100.00;97318.50;104536;1330;22378;-84
2022/12/07 08:31:13;;;;;;;56.70;32.10;;;;;;;0.61;100.00;97322.59;104536;1329;22224;-85
2022/12/07 08:33:42;;;;;;;23.20;21.00;;;;;;;0.62;100.00;97325.89;104636;1329;22384;-85
2022/12/07 08:36:11;;;;;;;26.10;23.10;;;;;;;0.62;100.00;97324.08;104520;1330;22256;-86
2022/12/07 08:38:41;;;;;;;34.70;27.80;;;;;;;0.63;100.00;97322.71;104728;1330;22209;-86
2022/12/07 08:41:22;;;;;;;23.10;21.00;;;;;;;0.63;100.00;97329.50;104803;1329;22188;-91
2022/12/07 08:43:51;;;;;;;19.80;18.00;;;;;;;0.67;100.00;97333.52;104889;1330;22109;-90
2022/12/07 08:46:33;;;;;;;21.80;19.80;;;;;;;0.72;100.00;97328.59;104843;1330;22290;-92
2022/12/07 08:49:13;;;;;;;22.80;20.60;;;;;;;0.72;100.00;97330.13;105922;1298;23969;31
2022/12/07 08:51:49;;;;;;;19.00;17.30;;;;;;;0.68;100.00;97329.02;106004;1295;24188;-86
2022/12/07 08:54:19;;;;;;;18.50;16.80;;;;;;;0.68;100.00;97329.87;104650;1320;22145;-90
2022/12/07 08:56:48;;;;;;;18.90;17.10;;;;;;;0.70;100.00;97329.95;104694;1329;22298;-90
2022/12/07 08:59:26;;;;;;;19.70;17.60;;;;;;;0.73;100.00;97329.49;104688;1329;22138;-88
2022/12/07 09:01:54;;;;;;;20.50;18.70;;;;;;;0.76;100.00;97326.72;104541;1330;22130;-89
2022/12/07 09:04:22;;;;;;;21.80;19.80;;;;;;;0.78;100.00;97325.63;104841;1322;22203;-86
2022/12/07 09:06:50;;;;;;;22.80;20.80;;;;;;;0.77;100.00;97329.54;104801;1328;22222;-86
2022/12/07 09:09:18;;;;;;;20.30;18.50;;;;;;;0.74;100.00;97333.02;104751;1329;22790;-86
2022/12/07 09:11:46;;;;;;;19.50;17.80;;;;;;;0.77;100.00;97330.82;104518;1323;22194;-85
2022/12/07 09:14:15;;;;;;;24.80;22.60;;;;;;;0.77;100.00;97326.52;104436;1330;22153;-87
2022/12/07 09:16:43;;;;;;;23.90;21.60;;;;;;;0.77;100.00;97319.09;104579;1328;22213;-90
2022/12/07 09:19:11;;;;;;;20.90;19.00;;;;;;;0.80;100.00;97317.23;104846;1302;22212;-89
2022/12/07 09:21:39;;;;;;;22.70;20.70;;;;;;;0.82;100.00;97321.15;104782;1332;22248;-88
2022/12/07 09:24:08;;;;;;;22.90;20.80;;;;;;;0.85;100.00;97321.52;105477;1300;22274;-87
2022/12/07 09:26:39;;;;;;;22.60;20.60;;;;;;;0.88;100.00;97324.48;105437;1298;22095;-89
2022/12/07 09:29:06;;;;;;;26.30;24.00;;;;;;;0.88;100.00;97326.70;105008;1324;22211;-86
2022/12/07 09:31:36;;;;;;;24.20;22.00;;;;;;;0.83;100.00;97319.73;105030;1323;22359;-88
2022/12/07 09:34:08;;;;;;;26.40;22.90;;;;;;;0.84;100.00;97322.88;105293;1320;22202;-88
2022/12/07 09:36:36;;;;;;;21.60;19.50;;;;;;;0.83;100.00;97321.70;104978;1328;22681;-85
2022/12/07 09:39:05;;;;;;;20.50;18.60;;;;;;;0.86;100.00;97326.30;105008;1329;22877;-86
2022/12/07 09:41:36;;;;;;;20.50;18.70;;;;;;;0.88;100.00;97323.06;105048;1311;22186;-90
2022/12/07 09:44:23;;;;;;;26.00;23.60;;;;;;;0.86;100.00;97317.65;105628;1300;22405;31
2022/12/07 09:47:02;;;;;;;19.60;17.70;;;;;;;0.85;100.00;97316.95;105263;1298;22614;31
2022/12/07 09:49:32;;;;;;;19.40;17.70;;;;;;;0.87;100.00;97315.00;104482;1294;22031;-84
2022/12/07 09:52:19;;;;;;;17.90;16.10;;;;;;;0.88;100.00;97313.42;104857;1330;22291;-87
2022/12/07 09:54:50;;;;;;;21.50;15.60;;;;;;;0.91;100.00;97310.20;104830;1329;22209;-89
2022/12/07 09:57:29;;;;;;;19.10;17.40;;;;;;;0.98;100.00;97315.64;105214;1306;22112;-89
2022/12/07 10:00:03;;;;;;;20.20;18.30;;;;;;;0.99;100.00;97314.98;104831;1330;22946;-92
2022/12/07 10:02:39;;;;;;;21.50;19.40;;;;;;;0.97;100.00;97310.42;105255;1306;22118;-89
2022/12/07 10:05:14;;;;;;;24.10;21.90;;;;;;;0.98;100.00;97302.43;104911;1323;22057;-83
2022/12/07 10:07:50;;;;;;;24.00;21.90;;;;;;;0.99;100.00;97295.02;105053;1295;22205;-90
2022/12/07 10:10:29;;;;;;;25.40;23.10;;;;;;;1.05;100.00;97301.91;105580;1288;22548;31
2022/12/07 10:13:46;;;;;;;33.10;29.90;;;;;;;0.97;100.00;97281.98;106020;1294;22355;-83
2022/12/07 10:16:39;;;;;;;23.50;21.40;;;;;;;1.08;100.00;97290.53;105917;1293;23190;-93
2022/12/07 10:19:20;;;;;;;34.90;31.50;;;;;;;1.13;100.00;97284.26;106028;1297;24567;31
2022/12/07 10:22:04;;;;;;;36.90;33.40;;;;;;;1.20;100.00;97278.05;106286;1295;23512;31
2022/12/07 10:24:51;;;;;;;43.20;39.60;;;;;;;1.28;100.00;97274.98;102587;1291;22016;-93
2022/12/07 10:27:25;;;;;;;38.60;35.50;;;;;;;1.37;100.00;97273.41;104699;1329;22126;-91
2022/12/07 10:29:53;;;;;;;36.90;34.00;;;;;;;1.40;100.00;97269.66;104912;1288;22057;-89
2022/12/07 10:32:29;;;;;;;30.80;28.10;;;;;;;1.46;100.00;97271.50;105213;1300;22214;-89
2022/12/07 10:35:21;;;;;;;31.70;29.10;;;;;;;1.50;100.00;97268.11;104917;1301;22209;-88
2022/12/07 10:37:57;;;;;;;31.80;28.80;;;;;;;1.54;100.00;97263.28;105630;1301;22269;31
2022/12/07 10:40:36;;;;;;;26.20;23.90;;;;;;;1.60;100.00;97256.77;103926;1296;22212;31
2022/12/07 10:43:17;;;;;;;31.00;28.50;;;;;;;1.62;100.00;97256.85;105193;1296;22318;-90
2022/12/07 10:46:14;;;;;;;25.60;23.30;;;;;;;1.66;100.00;97256.65;104966;1300;22367;-84
2022/12/07 10:48:59;;;;;;;24.10;22.00;;;;;;;1.65;100.00;97252.45;104883;1301;22263;-91
2022/12/07 10:51:48;;;;;;;24.70;22.50;;;;;;;1.71;100.00;97251.69;104979;1303;21861;-92
2022/12/07 10:54:44;;;;;;;28.60;26.20;;;;;;;1.76;100.00;97250.81;105878;1295;22309;31
2022/12/07 10:57:28;;;;;;;26.20;24.00;;;;;;;1.78;100.00;97246.58;105098;1303;22858;-91
2022/12/07 11:00:00;;;;;;;27.20;24.70;;;;;;;1.83;100.00;97247.34;104828;1332;22691;-85
2022/12/07 11:02:46;;;;;;;28.90;26.30;;;;;;;1.85;100.00;97245.86;105555;1298;21930;-86
2022/12/07 11:05:49;;;;;;;25.50;23.30;;;;;;;1.93;100.00;97247.61;104769;1300;22400;-92
2022/12/07 11:08:42;;;;;;;36.50;33.50;;;;;;;1.96;100.00;97245.17;105388;1298;22278;31
2022/12/07 11:11:10;;;;;;;19.40;17.50;;;;;;;1.96;100.00;97241.83;105006;1311;22887;-92
2022/12/07 11:14:22;;;;;;;26.00;23.80;;;;;;;2.02;100.00;97242.54;105296;1292;22123;-83
2022/12/07 11:16:57;;;;;;;25.30;23.00;;;;;;;2.06;100.00;97239.00;104875;1293;22183;-90
2022/12/07 11:19:57;;;;;;;26.00;23.50;;;;;;;2.06;100.00;97240.65;104644;1329;22267;-91
2022/12/07 11:22:46;;;;;;;27.70;25.10;;;;;;;2.04;100.00;97238.72;104831;1323;22877;-89
2022/12/07 11:25:21;;;;;;;22.80;20.70;;;;;;;2.09;100.00;97234.65;104585;1329;22081;-92
2022/12/07 11:28:04;;;;;;;26.60;24.40;;;;;;;2.12;100.00;97236.37;104801;1324;22109;-91
2022/12/07 11:30:54;;;;;;;27.80;25.10;;;;;;;2.12;100.00;97235.30;104861;1329;22224;-90
2022/12/07 11:33:38;;;;;;;22.50;20.50;;;;;;;2.11;100.00;97229.77;104756;1330;22172;-92
2022/12/07 11:36:37;;;;;;;19.60;17.70;;;;;;;2.12;100.00;97230.98;104683;1329;22223;-89
2022/12/07 11:39:32;;;;;;;30.30;27.50;;;;;;;2.14;100.00;97229.04;104738;1315;22147;-87
2022/12/07 11:42:03;;;;;;;;;;;;;;;2.27;100.00;97221.91;104586;1329;22459;-88
2022/12/07 11:44:55;;;;;;;17.80;16.10;;;;;;;2.34;100.00;97218.14;104889;1322;22304;-88
2022/12/07 11:47:35;;;;;;;37.20;33.60;;;;;;;2.38;100.00;97214.33;104583;1329;22230;-88
2022/12/07 11:50:13;;;;;;;17.60;15.80;;;;;;;2.41;100.00;97218.48;104562;1329;22233;-92